Tiempo atmosférico en la estación meteorológica de Valsequillo, Córdoba (575 m.)



Fecha
DESCASC
Temp. máxima en grados centígrados (hora)
DESCASC
Temp. mínima en grados centígrados (hora)
DESCASC
Temp. media en grados centígrados
DESCASC
Racha de viento máxima en m/sg (hora)
DESCASC
Velocidad máxima media en intervalos de 10 minutos(hora)
DESCASC
Precipitaciones diarias en mm
DESCASC
Precipitaciones de 00:00 a 06:00 en mm
DESCASC
Precipitaciones de 06:00 a 12:00 en mm
DESCASC
Precipitaciones de 12:00 a 18:00 en mm
DESCASC
Precipitaciones de 18:00 a 24:00 en mm
DESCASC
22-04-2019 21.9 (17:00) 5.4 (07:40) 13.6 11.94 (18:30) 8.33 (18:30) 0 0 0 0 0
21-04-2019 16.9 (16:20) 7.1 (07:20) 12 9.72 (15:40) 6.39 (15:40) 0 0 0 0 0
20-04-2019 12.7 (13:30) 7.1 (03:30) 9.9 15.56 (14:50) 8.33 (14:10) 5.8 0 2.8 2.2 0.8
19-04-2019 18.6 (14:50) 5.5 (08:30) 12.1 10 (20:40) 4.72 (20:30) 0.6 0 0 0.4 0.2
18-04-2019 16.1 (13:10) 8 (00:00) 12.1 10.56 (13:40) 7.22 (13:40) 0 0 0 0 0
17-04-2019 21.1 (15:50) 11.4 (00:00) 16.3 14.17 (13:00) 8.33 (11:40) 0 0 0 0 0
16-04-2019 24.1 (18:00) 4 (00:00) 14.1 8.89 (16:10) 4.72 (18:30) 0 0 0 0 0
15-04-2019 24.4 (14:40) 9 (00:00) 16.7 13.89 (17:40) 9.44 (18:10) 0 0 0 0 0
14-04-2019 23.9 (15:40) 8.6 (00:00) 16.3 6.94 (16:10) 3.06 (17:20) 0 0 0 0 0
13-04-2019 22.6 (17:20) 2.6 (00:00) 12.6 8.61 (15:40) 4.72 (19:10) 0 0 0 0 0
12-04-2019 20.4 (17:30) 1.3 (00:00) 10.8 6.39 (16:30) 4.17 (19:40) 0 0 0 0 0
11-04-2019 18.6 (16:40) 2.5 (00:00) 10.6 9.17 (14:40) 5 (18:30) 0 0 0 0 0
10-04-2019 16.1 (18:30) 6.4 (00:00) 11.3 11.11 (19:20) 8.33 (19:20) 0 0 0 0 0
09-04-2019 15 (15:30) 4.7 (00:00) 9.8 14.17 (18:10) 9.72 (13:30) 0.8 0 0 0 0.8
08-04-2019 17.3 (17:30) 6.7 (00:00) 12 11.94 (16:30) 8.33 (21:50) 4.4 1.2 3.2 0 0
07-04-2019 11.2 (16:40) 5.9 (00:00) 8.5 11.67 (02:50) 6.67 (03:10) 1.2 0.2 0.2 0.2 0.6
06-04-2019 13 (16:20) 3.5 (00:00) 8.3 17.78 (19:50) 11.39 (19:50) 4.8 0 0.2 1.8 2.8
05-04-2019 11.7 (17:00) 4.4 (00:00) 8 14.17 (19:40) 8.89 (13:40) 6.2 1.2 4.4 0.2 0.4
04-04-2019 17.5 (17:10) 1.3 (00:00) 9.4 10 (18:40) 6.94 (19:00) 0 0 0 0 0
03-04-2019 19 (15:20) 6.1 (00:00) 12.5 14.72 (13:40) 8.61 (15:40) 0 0 0 0 0
02-04-2019 20.2 (17:00) 7.7 (00:00) 14 6.67 (17:40) 4.17 (17:50) 0 0 0 0 0
01-04-2019 18.5 (14:30) 10.3 (00:00) 14.4 9.17 (16:40) 6.11 (14:50) 0 0 0 0 0
31-03-2019 19.4 (15:50) 10 (00:00) 14.7 10 (18:50) 6.94 (19:00) 0.8 0.2 0.4 0 0.2
30-03-2019 22.3 (15:50) 4.3 (00:00) 13.3 8.06 (14:30) 3.89 (14:30) 0.2 0 0 0 0.2
29-03-2019 19.9 (16:30) -1 (-00:0) 9.4 10 (13:10) 5.28 (12:00) 0 0 0 0 0
28-03-2019 20 (17:00) 1.1 (00:00) 10.6 9.72 (14:50) 5.83 (13:40) 0 0 0 0 0
27-03-2019 20.6 (17:00) 1.5 (00:00) 11.1 12.5 (16:00) 6.67 (15:10) 0 0 0 0 0
26-03-2019 24 (17:40) 5.3 (00:00) 14.7 9.72 (14:40) 4.72 (15:30) 0 0 0 0 0
25-03-2019 23 (16:20) 1.9 (00:00) 12.4 10.28 (15:50) 5.28 (14:40) 0 0 0 0 0

Gráficas

Temp. máximas Temp. mínimas Temp. medias Precipitaciones Rachas de viento máximas Velocidades máximas media en intervalos de 10 minutos

Datos horarios

Fecha y hora oficial Temperatura (ºC) Velocidad del viento (km/h) Dirección del viento Racha (km/h) Dirección de racha Precipitación (mm) Presión (hPa) Tendencia (hPa) Humedad (%)
2019-04-23 23:00:00 5.6 11 Sudoeste 36 Oeste 0 -- -- 86
2019-04-23 22:00:00 6.1 23 Oeste 35 Oeste 0 -- -- 87
2019-04-23 21:00:00 5.9 18 Oeste 43 Oeste 0.4 -- -- 88
2019-04-23 20:00:00 9 27 Oeste 46 Noroeste 0 -- -- 69
2019-04-23 19:00:00 10.7 27 Oeste 41 Oeste 0 -- -- 61
2019-04-23 18:00:00 11.7 29 Oeste 46 Oeste 0 -- -- 59
2019-04-23 17:00:00 11.4 33 Oeste 55 Oeste 0.2 -- -- 59
2019-04-23 16:00:00 11.9 27 Oeste 45 Oeste 0 -- -- 60
2019-04-23 15:00:00 10 28 Oeste 56 Oeste 0.2 -- -- 76
2019-04-23 14:00:00 10.4 19 Sudoeste 46 Sudoeste 0 -- -- 68
2019-04-23 13:00:00 11.1 26 Oeste 41 Oeste 0 -- -- 65
2019-04-23 12:00:00 11.2 24 Oeste 40 Oeste 0 -- -- 65
2019-04-23 11:00:00 8.9 22 Oeste 35 Oeste 0 -- -- 77
2019-04-23 10:00:00 7.4 15 Oeste 30 Oeste 0 -- -- 86
2019-04-23 09:00:00 7.2 19 Oeste 27 Oeste 0.2 -- -- 88
2019-04-23 08:00:00 7.3 12 Oeste 27 Oeste 0.8 -- -- 93
2019-04-23 07:00:00 8.1 15 Oeste 45 Oeste 3.8 -- -- 94
2019-04-23 06:00:00 10.1 15 Sudoeste 33 Sudoeste 0.8 -- -- 88
2019-04-23 05:00:00 11.2 14 Sudoeste 28 Sudoeste 0 -- -- 80
2019-04-23 04:00:00 11.2 16 Sur 31 Sur 0 -- -- 85
2019-04-23 03:00:00 11.7 15 Sur 30 Sur 0 -- -- 85
2019-04-23 02:00:00 12 16 Sur 29 Sur 0 -- -- 82
2019-04-23 01:00:00 12.8 13 Sur 29 Sudoeste 0 -- -- 72
2019-04-23 00:00:00 13.7 12 Sudoeste 24 Sudoeste 0 -- -- 59
2019-04-22 23:00:00 14.4 12 Sudoeste 26 Oeste 0 -- -- 55
2019-04-22 22:00:00 15.7 19 Oeste 30 Oeste 0 -- -- 51
2019-04-22 21:00:00 16.3 15 Oeste 39 Oeste 0 -- -- 43
2019-04-22 20:00:00 18.1 24 Oeste 41 Oeste 0 -- -- 39
2019-04-22 19:00:00 20.3 25 Oeste 43 Oeste 0 -- -- 33
2019-04-22 18:00:00 19.7 23 Oeste 41 Sudoeste 0 -- -- 36
2019-04-22 17:00:00 21.9 22 Oeste 38 Sudoeste 0 -- -- 27
2019-04-22 16:00:00 20.8 20 Sudoeste 33 Oeste 0 -- -- 35
2019-04-22 15:00:00 18.7 13 Oeste 37 Oeste 0 -- -- 45
2019-04-22 14:00:00 18.6 11 Sudoeste 27 Sudoeste 0 -- -- 49
2019-04-22 13:00:00 17.3 10 Sudoeste 26 Oeste 0 -- -- 49
2019-04-22 12:00:00 16 9 Oeste 20 Oeste 0 -- -- 54
2019-04-22 11:00:00 13.9 7 Oeste 14 Sudoeste 0 -- -- 64
2019-04-22 10:00:00 11 6 Sur 10 Sur 0 -- -- 77
2019-04-22 09:00:00 7.2 0 Calma 3 Sudeste 0 -- -- 97
2019-04-22 08:00:00 5.4 0 Calma 3 Este 0 -- -- 96
2019-04-22 07:00:00 5.7 0 Calma 2 Sudoeste 0 -- -- 93
2019-04-22 06:00:00 6.5 0 Calma -- -- 0 -- -- 95
2019-04-22 05:00:00 6.5 2 Oeste 6 Norte 0 -- -- 93
2019-04-22 04:00:00 7.3 3 Noroeste 7 Oeste 0 -- -- 92
2019-04-22 03:00:00 8.6 4 Noroeste 8 Noroeste 0 -- -- 89
2019-04-22 02:00:00 9.6 5 Norte 6 Norte 0 -- -- 84
2019-04-22 01:00:00 10.2 0 Calma 5 Norte 0 -- -- 82
2019-04-22 00:00:00 10.6 3 Norte 9 Este 0 -- -- 75
2019-04-21 23:00:00 11.1 4 Este 9 Nordeste 0 -- -- 73
2019-04-21 22:00:00 11.8 4 Nordeste 9 Este 0 -- -- 71
2019-04-21 21:00:00 12.7 4 Este 19 Nordeste 0 -- -- 65
2019-04-21 20:00:00 13.7 9 Nordeste 23 Nordeste 0 -- -- 60
2019-04-21 19:00:00 14.3 15 Nordeste 28 Nordeste 0 -- -- 56
2019-04-21 18:00:00 15.3 15 Nordeste 28 Este 0 -- -- 56
2019-04-21 17:00:00 15.9 16 Nordeste 34 Este 0 -- -- 53
2019-04-21 16:00:00 16.8 18 Nordeste 35 Nordeste 0 -- -- 50
2019-04-21 15:00:00 16.3 15 Nordeste 31 Nordeste 0 -- -- 55
2019-04-21 14:00:00 15.1 14 Nordeste 33 Nordeste 0 -- -- 58
2019-04-21 13:00:00 13.5 14 Nordeste 27 Nordeste 0 -- -- 62
2019-04-21 12:00:00 12.5 18 Nordeste 33 Nordeste 0 -- -- 67
2019-04-21 11:00:00 11.2 12 Nordeste 28 Nordeste 0 -- -- 74
2019-04-21 10:00:00 10 16 Nordeste 31 Nordeste 0 -- -- 76
2019-04-21 09:00:00 8.4 11 Nordeste 22 Nordeste 0 -- -- 83
2019-04-21 08:00:00 7.5 13 Nordeste 18 Nordeste 0 -- -- 86
2019-04-21 07:00:00 7.3 7 Nordeste 19 Nordeste 0 -- -- 87
2019-04-21 06:00:00 7.8 8 Nordeste 20 Nordeste 0 -- -- 85
2019-04-21 05:00:00 8.2 10 Nordeste 18 Nordeste 0 -- -- 84
2019-04-21 04:00:00 8.7 8 Nordeste 21 Nordeste 0 -- -- 85
2019-04-21 03:00:00 8.5 7 Nordeste 13 Nordeste 0 -- -- 89
2019-04-21 02:00:00 8.6 5 Nordeste 21 Nordeste 0 -- -- 87
2019-04-21 01:00:00 9.4 11 Nordeste 24 Nordeste 0 -- -- 87
2019-04-21 00:00:00 9.7 10 Nordeste 28 Este 0 -- -- 85
2019-04-20 23:00:00 9.7 16 Nordeste 34 Nordeste 0 -- -- 87
2019-04-20 22:00:00 9.4 15 Nordeste 31 Nordeste 0 -- -- 89
2019-04-20 21:00:00 9.4 17 Nordeste 39 Nordeste 0 -- -- 90
2019-04-20 20:00:00 10 19 Nordeste 36 Norte 0.2 -- -- 92
2019-04-20 19:00:00 10 20 Nordeste 40 Nordeste 0.6 -- -- 93
2019-04-20 18:00:00 10.5 19 Nordeste 39 Nordeste 0.6 -- -- 93
2019-04-20 17:00:00 10.7 19 Nordeste 33 Nordeste 0.8 -- -- 93
2019-04-20 16:00:00 10.7 15 Nordeste 46 Este 0.6 -- -- 88
2019-04-20 15:00:00 10.9 24 Nordeste 56 Nordeste 0.2 -- -- 81
2019-04-20 14:00:00 12.7 28 Nordeste 53 Nordeste 0 -- -- 69
2019-04-20 13:00:00 12.2 24 Nordeste 46 Este 0 -- -- 74
2019-04-20 12:00:00 11 16 Nordeste 28 Nordeste 0 -- -- 86
2019-04-20 11:00:00 10.7 15 Nordeste 36 Norte 0 -- -- 87
2019-04-20 10:00:00 9.5 15 Nordeste 39 Nordeste 0.6 -- -- 95
2019-04-20 09:00:00 8.7 16 Nordeste 27 Nordeste 1.6 -- -- 96
2019-04-20 08:00:00 8.7 14 Norte 28 Norte 0.6 -- -- 92
2019-04-20 07:00:00 8.7 13 Norte 22 Nordeste 0 -- -- 88
2019-04-20 06:00:00 8.4 13 Nordeste 22 Norte 0 -- -- 90
2019-04-20 05:00:00 7.5 6 Nordeste 15 Nordeste 0 -- -- 92
2019-04-20 04:00:00 7.2 8 Nordeste 17 Nordeste 0 -- -- 91
2019-04-20 03:00:00 7.5 9 Nordeste 19 Nordeste 0 -- -- 90
2019-04-20 02:00:00 7.2 6 Nordeste 13 Nordeste 0 -- -- 91
2019-04-20 01:00:00 7.5 5 Nordeste 14 Nordeste 0 -- -- 90
2019-04-20 00:00:00 8.7 5 Nordeste 15 Nordeste 0 -- -- 86
2019-04-19 23:00:00 9.5 7 Nordeste 20 Nordeste 0 -- -- 83
2019-04-19 22:00:00 10.5 7 Nordeste 27 Este 0 -- -- 81
2019-04-19 21:00:00 11.3 10 Nordeste 36 Nordeste 0 -- -- 79
2019-04-19 20:00:00 13.3 11 Nordeste 31 Este 0.2 -- -- 70
2019-04-19 19:00:00 16.7 9 Nordeste 23 Este 0 -- -- 50
2019-04-19 18:00:00 15.9 12 Norte 23 Este 0 -- -- 59
2019-04-19 17:00:00 13.1 14 Este 27 Este 0.4 -- -- 75
2019-04-19 16:00:00 15.9 17 Este 32 Este 0 -- -- 53
2019-04-19 15:00:00 18.6 6 Este 17 Sudeste 0 -- -- 42
2019-04-19 14:00:00 16.6 7 Este 18 Norte 0 -- -- 51
2019-04-19 13:00:00 14.2 6 Norte 13 Norte 0 -- -- 59
2019-04-19 12:00:00 14 6 Nordeste 14 Nordeste 0 -- -- 59
2019-04-19 11:00:00 12.6 6 Sudeste 13 Sudeste 0 -- -- 67
2019-04-19 10:00:00 9.9 3 Sur 6 Sudoeste 0 -- -- 82
2019-04-19 09:00:00 5.9 0 Calma 4 Sur 0 -- -- 95
2019-04-19 08:00:00 6 0 Calma 5 Sur 0 -- -- 93
2019-04-19 07:00:00 6.5 4 Sur 8 Sur 0 -- -- 92
2019-04-19 06:00:00 7 3 Sur 11 Sur 0 -- -- 92
2019-04-19 05:00:00 7 2 Sudoeste 9 Sudoeste 0 -- -- 93
2019-04-19 04:00:00 6.7 5 Sudoeste 9 Sudoeste 0 -- -- 94
2019-04-19 03:00:00 6.7 0 Calma 7 Este 0 -- -- 90
2019-04-19 02:00:00 8.2 0 Calma 9 Noroeste 0 -- -- 85
2019-04-19 01:00:00 9.3 8 Noroeste 26 Noroeste 0 -- -- 81
2019-04-19 00:00:00 9.6 16 Oeste 24 Oeste 0 -- -- 81
2019-04-18 23:00:00 9.4 10 Sudoeste 23 Oeste 0 -- -- 79
2019-04-18 22:00:00 9.7 5 Noroeste 28 Oeste 0 -- -- 76
2019-04-18 21:00:00 10.6 20 Sudoeste 36 Oeste 0 -- -- 73
2019-04-18 20:00:00 12.9 18 Sudoeste 24 Oeste 0 -- -- 61
2019-04-18 19:00:00 14.9 20 Oeste 27 Oeste 0 -- -- 52
2019-04-18 18:00:00 15.5 15 Oeste 27 Noroeste 0 -- -- 46
2019-04-18 17:00:00 16 16 Noroeste 26 Oeste 0 -- -- 48
2019-04-18 16:00:00 15.2 14 Noroeste 27 Oeste 0 -- -- 49
2019-04-18 15:00:00 14.4 21 Oeste 32 Oeste 0 -- -- 56
2019-04-18 14:00:00 11.7 21 Oeste 38 Oeste 0 -- -- 62
2019-04-18 13:00:00 15.4 10 Nordeste 16 Nordeste 0 -- -- 58
2019-04-18 12:00:00 14.3 5 Oeste 13 Noroeste 0 -- -- 62
2019-04-18 11:00:00 13.4 7 Noroeste 13 Noroeste 0 -- -- 67
2019-04-18 10:00:00 11.9 6 Sudoeste 11 Sudoeste 0 -- -- 75
2019-04-18 09:00:00 9.4 0 Calma 4 Oeste 0 -- -- 84
2019-04-18 08:00:00 9.1 2 Norte 4 Sudoeste 0 -- -- 84
2019-04-18 07:00:00 8.2 0 Calma 5 Sudoeste 0 -- -- 86
2019-04-18 06:00:00 8.7 0 Calma 9 Sudoeste 0 -- -- 80
2019-04-18 05:00:00 9.6 3 Sudoeste 10 Sudoeste 0 -- -- 79
2019-04-18 04:00:00 9.7 7 Sudoeste 15 Sudoeste 0 -- -- 79
2019-04-18 03:00:00 10.1 8 Sudoeste 16 Sur 0 -- -- 74
2019-04-18 02:00:00 11.2 7 Sur 24 Sudoeste 0 -- -- 69
2019-04-18 01:00:00 11.8 14 Sudoeste 26 Sudoeste 0 -- -- 66
2019-04-18 00:00:00 12.6 14 Oeste 26 Sudoeste 0 -- -- 63
2019-04-17 23:00:00 12.9 12 Sur 24 Sur 0 -- -- 63
2019-04-17 22:00:00 12.8 13 Sudoeste 36 Sudoeste 0 -- -- 64
2019-04-17 21:00:00 13.8 22 Sudoeste 36 Sudoeste 0 -- -- 73
2019-04-17 20:00:00 16 20 Sudoeste 39 Sur 0 -- -- 64
2019-04-17 19:00:00 17.2 24 Sudoeste 39 Sudoeste 0 -- -- 57
2019-04-17 18:00:00 18 18 Sudoeste 48 Sudoeste 0 -- -- 56
2019-04-17 17:00:00 18.9 27 Sudoeste 42 Sudoeste 0 -- -- 50
2019-04-17 16:00:00 20.6 24 Sudoeste 39 Sudoeste 0 -- -- 42
2019-04-17 15:00:00 20.2 18 Sur 40 Sur 0 -- -- 45
2019-04-17 14:00:00 19.4 23 Sur 44 Sur 0 -- -- 45
2019-04-17 13:00:00 19.2 27 Sur 51 Sur 0 -- -- 44
2019-04-17 12:00:00 18.6 26 Sur 47 Sur 0 -- -- 43
2019-04-17 11:00:00 17.7 27 Sur 42 Sudeste 0 -- -- 43
2019-04-17 10:00:00 15.7 22 Sur 37 Sur 0 -- -- 46
2019-04-17 09:00:00 13.8 17 Sudeste 27 Sudeste 0 -- -- 51
2019-04-17 08:00:00 12.2 10 Sudeste 21 Sudeste 0 -- -- 58
2019-04-17 07:00:00 11.8 8 Sudeste 16 Sudeste 0 -- -- 62
2019-04-17 06:00:00 11.6 10 Sudeste 17 Sudeste 0 -- -- 65
2019-04-17 05:00:00 11.4 11 Sur 20 Sudeste 0 -- -- 59
2019-04-17 04:00:00 12.7 15 Sur 34 Sur 0 -- -- 54
2019-04-17 03:00:00 12.7 14 Sur 25 Sudeste 0 -- -- 53
2019-04-17 02:00:00 13.9 15 Sudeste 24 Sudeste 0 -- -- 55
2019-04-17 01:00:00 14.7 9 Sur 15 Sudeste 0 -- -- 59
2019-04-17 00:00:00 15.4 10 Sur 13 Sur 0 -- -- 56
2019-04-16 23:00:00 15.8 8 Sur 12 Sur 0 -- -- 54
2019-04-16 22:00:00 17 9 Sur 14 Sur 0 -- -- 48
2019-04-16 21:00:00 19.3 10 Sur 27 Sur 0 -- -- 40
2019-04-16 20:00:00 21.4 17 Sur 30 Sur 0 -- -- 32
2019-04-16 19:00:00 22.9 16 Sur 29 Sur 0 -- -- 21
2019-04-16 18:00:00 24.1 14 Sur 29 Sudeste 0 -- -- 22
2019-04-16 17:00:00 23.6 11 Sudeste 32 Sur 0 -- -- 27
2019-04-16 16:00:00 22.7 10 Sur 27 Sudeste 0 -- -- 32
2019-04-16 15:00:00 21.5 9 Sur 27 Sudeste 0 -- -- 36
2019-04-16 14:00:00 20.7 13 Sudeste 30 Sudeste 0 -- -- 30
2019-04-16 13:00:00 19.6 11 Sudeste 31 Sur 0 -- -- 33
2019-04-16 12:00:00 18 12 Sudeste 21 Sudeste 0 -- -- 45
2019-04-16 11:00:00 16.4 9 Este 18 Sudeste 0 -- -- 55
2019-04-16 10:00:00 11.4 3 Nordeste 8 Este 0 -- -- 82
2019-04-16 09:00:00 6 0 Calma 3 Sudeste 0 -- -- 97
2019-04-16 08:00:00 4.1 0 Calma 2 Nordeste 0 -- -- 94
2019-04-16 07:00:00 4.4 0 Calma 5 Sur 0 -- -- 92
2019-04-16 06:00:00 4.5 3 Noroeste 5 Oeste 0 -- -- 87
2019-04-16 05:00:00 6.1 0 Calma 5 Este 0 -- -- 87
2019-04-16 04:00:00 6.8 0 Calma 7 Sudoeste 0 -- -- 88
2019-04-16 03:00:00 8.3 4 Norte 8 Sur 0 -- -- 83
2019-04-16 02:00:00 9 2 Este 8 Noroeste 0 -- -- 82
2019-04-16 01:00:00 9.6 4 Oeste 5 Oeste 0 -- -- 77
2019-04-16 00:00:00 9.9 2 Sudoeste 5 Nordeste 0 -- -- 78
2019-04-15 23:00:00 11.1 5 Oeste 12 Oeste 0 -- -- 77
2019-04-15 22:00:00 12.9 10 Noroeste 22 Oeste 0 -- -- 71
2019-04-15 21:00:00 15.1 14 Noroeste 38 Oeste 0 -- -- 67
2019-04-15 20:00:00 17.3 25 Noroeste 41 Oeste 0 -- -- 62
2019-04-15 19:00:00 19.5 27 Noroeste 48 Oeste 0 -- -- 53
2019-04-15 18:00:00 21.7 33 Oeste 50 Oeste 0 -- -- 37
2019-04-15 17:00:00 23.7 26 Oeste 42 Oeste 0 -- -- 34
2019-04-15 16:00:00 22.5 18 Oeste 37 Oeste 0 -- -- 39
2019-04-15 15:00:00 24.2 21 Sudoeste 42 Sudoeste 0 -- -- 35
2019-04-15 14:00:00 24 25 Sudoeste 37 Sudoeste 0 -- -- 27
2019-04-15 13:00:00 22.1 21 Sudoeste 30 Sudoeste 0 -- -- 36
2019-04-15 12:00:00 20.4 17 Sudoeste 27 Sudoeste 0 -- -- 47
2019-04-15 11:00:00 18.6 14 Sudoeste 27 Sur 0 -- -- 59
2019-04-15 10:00:00 15.3 5 Sur 13 Sudeste 0 -- -- 74
2019-04-15 09:00:00 14 7 Sudoeste 14 Sur 0 -- -- 81
2019-04-15 08:00:00 9.5 0 Calma 9 Este 0 -- -- 91
2019-04-15 07:00:00 9 0 Calma 6 Sudeste 0 -- -- 90
2019-04-15 06:00:00 10.1 0 Calma 4 Noroeste 0 -- -- 91
2019-04-15 05:00:00 10.3 0 Calma 4 Este 0 -- -- 84
2019-04-15 04:00:00 11.2 0 Calma 6 Nordeste 0 -- -- 86
2019-04-15 03:00:00 12.8 0 Calma 4 Nordeste 0 -- -- 81
2019-04-15 02:00:00 14 0 Calma 3 Sudeste 0 -- -- 80
2019-04-15 01:00:00 14.6 0 Calma 6 Este 0 -- -- 75
2019-04-15 00:00:00 16.1 3 Este 13 Este 0 -- -- 72
2019-04-14 23:00:00 16.8 4 Este 9 Sudeste 0 -- -- 70
2019-04-14 22:00:00 17.7 4 Este 8 Nordeste 0 -- -- 67
2019-04-14 21:00:00 19.3 4 Nordeste 10 Norte 0 -- -- 61
2019-04-14 20:00:00 21.1 9 Norte 12 Norte 0 -- -- 53
2019-04-14 19:00:00 21.9 10 Noroeste 19 Noroeste 0 -- -- 49
2019-04-14 18:00:00 22.6 9 Noroeste 19 Norte 0 -- -- 48
2019-04-14 17:00:00 22.8 9 Noroeste 25 Oeste 0 -- -- 47
2019-04-14 16:00:00 23.3 10 Oeste 23 Noroeste 0 -- -- 45
2019-04-14 15:00:00 22.1 8 Noroeste 18 Oeste 0 -- -- 50
2019-04-14 14:00:00 21.3 8 Oeste 16 Oeste 0 -- -- 52
2019-04-14 13:00:00 19.5 6 Sudoeste 13 Noroeste 0 -- -- 61
2019-04-14 12:00:00 17.7 7 Oeste 16 Oeste 0 -- -- 67
2019-04-14 11:00:00 17 8 Norte 16 Oeste 0 -- -- 71
2019-04-14 10:00:00 13.9 3 Noroeste 12 Oeste 0 -- -- 83
2019-04-14 09:00:00 13.2 5 Oeste 9 Oeste 0 -- -- 88
2019-04-14 08:00:00 12.1 5 Oeste 9 Noroeste 0 -- -- 92
2019-04-14 07:00:00 10.6 0 Calma 4 Oeste 0 -- -- 92
2019-04-14 06:00:00 8.8 0 Calma 3 Sudoeste 0 -- -- 86
2019-04-14 05:00:00 9.2 2 Sur 6 Sur 0 -- -- 80
2019-04-14 04:00:00 10.2 4 Sudeste 7 Sur 0 -- -- 74
2019-04-14 03:00:00 11.5 0 Calma 9 Oeste 0 -- -- 75
2019-04-14 02:00:00 11.7 0 Calma 5 Oeste 0 -- -- 70
2019-04-14 01:00:00 11.2 0 Calma 9 Noroeste 0 -- -- 63
2019-04-14 00:00:00 12 0 Calma 5 Noroeste 0 -- -- 59
2019-04-13 23:00:00 12.6 4 Noroeste 15 Noroeste 0 -- -- 55
2019-04-13 22:00:00 14.9 5 Noroeste 10 Noroeste 0 -- -- 46
2019-04-13 21:00:00 17.3 7 Noroeste 19 Noroeste 0 -- -- 41
2019-04-13 20:00:00 20.8 12 Noroeste 24 Noroeste 0 -- -- 33
2019-04-13 19:00:00 22 10 Noroeste 27 Oeste 0 -- -- 28
2019-04-13 18:00:00 22.3 13 Noroeste 24 Oeste 0 -- -- 29
2019-04-13 17:00:00 22.5 10 Noroeste 27 Norte 0 -- -- 28
2019-04-13 16:00:00 21.8 9 Oeste 31 Noroeste 0 -- -- 29
2019-04-13 15:00:00 21 5 Noroeste 20 Oeste 0 -- -- 32
2019-04-13 14:00:00 20.4 4 Nordeste 28 Norte 0 -- -- 35
2019-04-13 13:00:00 19.4 12 Oeste 21 Oeste 0 -- -- 38
2019-04-13 12:00:00 18.3 11 Noroeste 17 Noroeste 0 -- -- 32
2019-04-13 11:00:00 15 5 Sudoeste 10 Oeste 0 -- -- 55
2019-04-13 10:00:00 10.3 4 Sur 8 Sur 0 -- -- 65
2019-04-13 09:00:00 4.8 0 Calma 5 Sur 0 -- -- 82
2019-04-13 08:00:00 3.8 0 Calma 5 Sudoeste 0 -- -- 80
2019-04-13 07:00:00 2.6 3 Sudoeste 4 Sudoeste 0 -- -- 81
2019-04-13 06:00:00 3.4 2 Sudoeste 7 Sur 0 -- -- 79
2019-04-13 05:00:00 4.4 3 Sur 6 Oeste 0 -- -- 76
2019-04-13 04:00:00 4.8 0 Calma 4 Sur 0 -- -- 75
2019-04-13 03:00:00 5.3 0 Calma 3 Oeste 0 -- -- 74
2019-04-13 02:00:00 5.9 0 Calma 2 Sudoeste 0 -- -- 72
2019-04-13 01:00:00 6.8 0 Calma 2 Sudoeste 0 -- -- 68
2019-04-13 00:00:00 7.9 0 Calma 7 Noroeste 0 -- -- 64
2019-04-12 23:00:00 9.5 0 Calma 8 Norte 0 -- -- 58
2019-04-12 22:00:00 12.1 5 Norte 12 Norte 0 -- -- 46
2019-04-12 21:00:00 14.5 9 Norte 18 Norte 0 -- -- 41
2019-04-12 20:00:00 17.9 10 Norte 22 Norte 0 -- -- 33
2019-04-12 19:00:00 19.8 11 Norte 22 Noroeste 0 -- -- 31
2019-04-12 18:00:00 20.3 9 Noroeste 23 Noroeste 0 -- -- 28
2019-04-12 17:00:00 20.1 10 Noroeste 23 Oeste 0 -- -- 26
2019-04-12 16:00:00 19.4 10 Norte 19 Norte 0 -- -- 30
2019-04-12 15:00:00 18.7 9 Sudoeste 20 Oeste 0 -- -- 31
2019-04-12 14:00:00 17.9 5 Nordeste 22 Norte 0 -- -- 32
2019-04-12 13:00:00 17.4 6 Norte 17 Oeste 0 -- -- 35
2019-04-12 12:00:00 16.4 5 Sur 17 Sur 0 -- -- 40
2019-04-12 11:00:00 14.1 3 Sudeste 8 Este 0 -- -- 51
2019-04-12 10:00:00 8.9 0 Calma 6 Este 0 -- -- 75
2019-04-12 09:00:00 2.9 0 Calma 4 Noroeste 0 -- -- 95
2019-04-12 08:00:00 1.6 0 Calma 3 Oeste 0 -- -- 87
2019-04-12 07:00:00 1.9 0 Calma 3 Este 0 -- -- 86
2019-04-12 06:00:00 3 2 Norte 4 Nordeste 0 -- -- 85
2019-04-12 05:00:00 3.4 3 Noroeste 4 Noroeste 0 -- -- 83
2019-04-12 04:00:00 3.8 0 Calma 3 Noroeste 0 -- -- 80
2019-04-12 03:00:00 4.4 0 Calma 5 Noroeste 0 -- -- 80
2019-04-12 02:00:00 5.1 0 Calma 4 Sudoeste 0 -- -- 78
2019-04-12 01:00:00 5.4 2 Oeste 4 Noroeste 0 -- -- 78
2019-04-12 00:00:00 6.5 3 Noroeste 6 Oeste 0 -- -- 74
2019-04-11 23:00:00 8.2 0 Calma 5 Oeste 0 -- -- 68
2019-04-11 22:00:00 10.3 4 Norte 6 Noroeste 0 -- -- 61
2019-04-11 21:00:00 12.6 5 Oeste 19 Oeste 0 -- -- 55
2019-04-11 20:00:00 16.2 12 Noroeste 17 Noroeste 0 -- -- 39
2019-04-11 19:00:00 16.7 10 Noroeste 30 Norte 0 -- -- 33
2019-04-11 18:00:00 16.2 11 Norte 27 Norte 0 -- -- 37
2019-04-11 17:00:00 18.1 12 Noroeste 32 Norte 0 -- -- 34
2019-04-11 16:00:00 17 12 Noroeste 21 Noroeste 0 -- -- 39
2019-04-11 15:00:00 16.6 10 Oeste 33 Noroeste 0 -- -- 40
2019-04-11 14:00:00 15.4 8 Norte 18 Nordeste 0 -- -- 45
2019-04-11 13:00:00 15.5 6 Este 14 Este 0 -- -- 50
2019-04-11 12:00:00 13.4 6 Nordeste 17 Nordeste 0 -- -- 58
2019-04-11 11:00:00 11.6 8 Nordeste 17 Nordeste 0 -- -- 63
2019-04-11 10:00:00 8.3 5 Noroeste 9 Norte 0 -- -- 87
2019-04-11 09:00:00 3.9 2 Noroeste 6 Noroeste 0 -- -- 97
2019-04-11 08:00:00 2.6 0 Calma 6 Oeste 0 -- -- 94
2019-04-11 07:00:00 2.5 2 Oeste 6 Oeste 0 -- -- 93
2019-04-11 06:00:00 3.3 0 Calma 8 Oeste 0 -- -- 92
2019-04-11 05:00:00 3.8 3 Oeste 12 Noroeste 0 -- -- 93
2019-04-11 04:00:00 4.1 4 Oeste 8 Sudoeste 0 -- -- 90
2019-04-11 03:00:00 4.6 4 Oeste 11 Oeste 0 -- -- 89
2019-04-11 02:00:00 5.7 7 Oeste 15 Noroeste 0 -- -- 88
2019-04-11 01:00:00 7.1 2 Sudoeste 12 Noroeste 0 -- -- 83
2019-04-11 00:00:00 8.5 8 Noroeste 17 Oeste 0 -- -- 79
2019-04-10 23:00:00 10 12 Noroeste 21 Oeste 0 -- -- 69
2019-04-10 22:00:00 10.4 12 Noroeste 23 Noroeste 0 -- -- 64
2019-04-10 21:00:00 12 13 Noroeste 33 Noroeste 0 -- -- 55
2019-04-10 20:00:00 13.7 18 Noroeste 40 Oeste 0 -- -- 49
2019-04-10 19:00:00 15.7 28 Noroeste 40 Oeste 0 -- -- 47
2019-04-10 18:00:00 15.3 24 Noroeste 37 Oeste 0 -- -- 45
2019-04-10 17:00:00 14.9 26 Noroeste 38 Oeste 0 -- -- 47
2019-04-10 16:00:00 14.4 24 Noroeste 35 Noroeste 0 -- -- 50
2019-04-10 15:00:00 14.1 22 Noroeste 37 Noroeste 0 -- -- 51
2019-04-10 14:00:00 13.2 20 Noroeste 35 Noroeste 0 -- -- 53
2019-04-10 13:00:00 13.3 20 Noroeste 33 Noroeste 0 -- -- 57
2019-04-10 12:00:00 11.6 17 Noroeste 30 Noroeste 0 -- -- 68
2019-04-10 11:00:00 9.1 18 Noroeste 31 Oeste 0 -- -- 81
2019-04-10 10:00:00 8.2 20 Noroeste 29 Noroeste 0 -- -- 85
2019-04-10 09:00:00 7.1 14 Noroeste 23 Oeste 0 -- -- 90
2019-04-10 08:00:00 6.6 7 Oeste 15 Oeste 0 -- -- 93
2019-04-10 07:00:00 6.5 8 Oeste 14 Oeste 0 -- -- 92
2019-04-10 06:00:00 6.6 5 Oeste 22 Noroeste 0 -- -- 91
2019-04-10 05:00:00 6.7 5 Oeste 21 Oeste 0 -- -- 94
2019-04-10 04:00:00 6.8 15 Oeste 32 Oeste 0 -- -- 91
2019-04-10 03:00:00 6.6 15 Oeste 29 Oeste 0 -- -- 91
2019-04-10 02:00:00 7.1 19 Oeste 27 Oeste 0 -- -- 88
2019-04-10 01:00:00 7.3 13 Noroeste 31 Oeste 0 -- -- 86
2019-04-10 00:00:00 8.3 21 Oeste 32 Oeste 0 -- -- 81
2019-04-09 23:00:00 8.4 12 Oeste 23 Oeste 0 -- -- 86
2019-04-09 22:00:00 8.9 15 Oeste 28 Oeste 0 -- -- 86
2019-04-09 21:00:00 10.2 10 Oeste 24 Oeste 0.2 -- -- 86
2019-04-09 20:00:00 11.8 15 Oeste 35 Oeste 0 -- -- 73
2019-04-09 19:00:00 11.8 23 Oeste 51 Oeste 0.6 -- -- 74
2019-04-09 18:00:00 13.2 24 Oeste 36 Oeste 0 -- -- 59
2019-04-09 17:00:00 14.1 24 Oeste 45 Oeste 0 -- -- 58
2019-04-09 16:00:00 14.9 28 Oeste 48 Oeste 0 -- -- 48
2019-04-09 15:00:00 13.6 29 Oeste 46 Oeste 0 -- -- 60
2019-04-09 14:00:00 14.2 29 Oeste 48 Oeste 0 -- -- 54
2019-04-09 13:00:00 11.8 34 Oeste 47 Oeste 0 -- -- 69
2019-04-09 12:00:00 11.5 30 Oeste 41 Oeste 0 -- -- 66
2019-04-09 11:00:00 9.9 24 Oeste 33 Sudoeste 0 -- -- 79
2019-04-09 10:00:00 8.4 15 Oeste 26 Sudoeste 0 -- -- 91
2019-04-09 09:00:00 6.1 2 Sur 9 Sur 0 -- -- 96
2019-04-09 08:00:00 5.9 3 Sur 8 Sudoeste 0 -- -- 95
2019-04-09 07:00:00 5.7 2 Sudoeste 8 Sudeste 0 -- -- 95
2019-04-09 06:00:00 5.1 0 Calma 9 Oeste 0 -- -- 96
2019-04-09 05:00:00 4.7 0 Calma 15 Sudoeste 0 -- -- 94
2019-04-09 04:00:00 5.1 12 Sudoeste 21 Oeste 0 -- -- 93
2019-04-09 03:00:00 6.1 13 Oeste 22 Oeste 0 -- -- 90
2019-04-09 02:00:00 6.8 13 Oeste 22 Oeste 0 -- -- 90
2019-04-09 01:00:00 5.8 10 Oeste 14 Oeste 0 -- -- 90
2019-04-09 00:00:00 6.7 11 Oeste 18 Noroeste 0 -- -- 86
2019-04-08 23:00:00 8.2 13 Noroeste 31 Noroeste 0 -- -- 80
2019-04-08 22:00:00 9.5 24 Noroeste 41 Oeste 0 -- -- 78
2019-04-08 21:00:00 11.3 12 Oeste 27 Oeste 0 -- -- 62
2019-04-08 20:00:00 13.7 19 Noroeste 36 Oeste 0 -- -- 59
2019-04-08 19:00:00 14.9 26 Oeste 40 Oeste 0 -- -- 58
2019-04-08 18:00:00 15.9 27 Oeste 39 Oeste 0 -- -- 52
2019-04-08 17:00:00 15.8 26 Oeste 43 Oeste 0 -- -- 55
2019-04-08 16:00:00 16 23 Oeste 39 Sudoeste 0 -- -- 59
2019-04-08 15:00:00 14.3 19 Sudoeste 28 Sudoeste 0 -- -- 73
2019-04-08 14:00:00 13.6 18 Oeste 26 Oeste 0 -- -- 76
2019-04-08 13:00:00 12.4 15 Oeste 24 Oeste 0 -- -- 87
2019-04-08 12:00:00 11.4 17 Oeste 24 Oeste 0 -- -- 88
2019-04-08 11:00:00 11 13 Sudoeste 22 Sudoeste 2.4 -- -- 97
2019-04-08 10:00:00 10.3 12 Sudoeste 21 Sudoeste 0 -- -- 96
2019-04-08 09:00:00 9.8 9 Sur 18 Sur 0.2 -- -- 96
2019-04-08 08:00:00 9.2 8 Sur 14 Sur 0 -- -- 97
2019-04-08 07:00:00 9.3 7 Sudoeste 12 Sudoeste 0.6 -- -- 97
2019-04-08 06:00:00 9.4 8 Sudoeste 20 Sur 0.4 -- -- 96
2019-04-08 05:00:00 9.3 6 Sur 13 Sur 0 -- -- 97
2019-04-08 04:00:00 9.7 5 Sudoeste 23 Sudoeste 0 -- -- 95
2019-04-08 03:00:00 10.1 17 Sudoeste 28 Sudoeste 0.2 -- -- 95
2019-04-08 02:00:00 10.2 9 Sudoeste 19 Sur 0.6 -- -- 97
2019-04-08 01:00:00 10.2 8 Sudoeste 15 Sudoeste 0 -- -- 96
2019-04-08 00:00:00 10 9 Sudoeste 15 Sudoeste 0 -- -- 96
2019-04-07 23:00:00 10.4 8 Sudoeste 26 Sudoeste 0.2 -- -- 95
2019-04-07 22:00:00 10.6 13 Sudoeste 23 Sudoeste 0.2 -- -- 96
2019-04-07 21:00:00 10.9 10 Sur 21 Sur 0 -- -- 92
2019-04-07 20:00:00 11.1 11 Sur 26 Sur 0 -- -- 89
2019-04-07 19:00:00 11 13 Sur 23 Sur 0.2 -- -- 88
2019-04-07 18:00:00 10.6 13 Sur 25 Sur 0 -- -- 91
2019-04-07 17:00:00 11.1 12 Sur 25 Sudoeste 0 -- -- 87
2019-04-07 16:00:00 10.6 12 Sudoeste 26 Sudoeste 0.2 -- -- 85
2019-04-07 15:00:00 10.1 18 Sudoeste 29 Sudoeste 0 -- -- 86
2019-04-07 14:00:00 10.2 12 Sudoeste 21 Sudoeste 0 -- -- 82
2019-04-07 13:00:00 9.5 13 Noroeste 24 Oeste 0 -- -- 84
2019-04-07 12:00:00 8.5 16 Oeste 26 Oeste 0 -- -- 89
2019-04-07 11:00:00 9 18 Oeste 32 Oeste 0 -- -- 84
2019-04-07 10:00:00 7.6 14 Sudoeste 26 Sudoeste 0.2 -- -- 93
2019-04-07 09:00:00 6.7 18 Oeste 28 Oeste 0 -- -- 94
2019-04-07 08:00:00 6.4 18 Oeste 27 Oeste 0 -- -- 94
2019-04-07 07:00:00 6.3 15 Oeste 26 Oeste 0 -- -- 93
2019-04-07 06:00:00 6.6 18 Oeste 33 Oeste 0 -- -- 93
2019-04-07 05:00:00 6.4 21 Oeste 36 Oeste 0 -- -- 92
2019-04-07 04:00:00 6.5 24 Oeste 38 Sudoeste 0.2 -- -- 93
2019-04-07 03:00:00 6.2 21 Oeste 42 Oeste 0 -- -- 94
2019-04-07 02:00:00 5.9 19 Sudoeste 28 Sudoeste 0 -- -- 93
2019-04-07 01:00:00 6.5 10 Oeste 19 Sudoeste 0 -- -- 95
2019-04-07 00:00:00 6.2 8 Sudoeste 22 Oeste 0.2 -- -- 93
2019-04-06 23:00:00 6.1 4 Sudoeste 28 Noroeste 1.6 -- -- 94
2019-04-06 22:00:00 5.4 4 Oeste 21 Noroeste 0.4 -- -- 93
2019-04-06 21:00:00 6.4 14 Noroeste 35 Oeste 0 -- -- 89
2019-04-06 20:00:00 6.8 24 Oeste 64 Oeste 0.6 -- -- 81
2019-04-06 19:00:00 10.6 27 Oeste 46 Oeste 0 -- -- 65
2019-04-06 18:00:00 10.3 28 Oeste 42 Oeste 0 -- -- 65
2019-04-06 17:00:00 7.8 25 Noroeste 52 Noroeste 1 -- -- 84
2019-04-06 16:00:00 11.3 18 Oeste 51 Noroeste 0 -- -- 69
2019-04-06 15:00:00 11.7 26 Oeste 42 Sudoeste 0 -- -- 63
2019-04-06 14:00:00 9.1 24 Sudoeste 46 Oeste 0.6 -- -- 76
2019-04-06 13:00:00 9.5 27 Oeste 48 Oeste 0.2 -- -- 73
2019-04-06 12:00:00 8.7 29 Oeste 43 Oeste 0 -- -- 77
2019-04-06 11:00:00 8.5 23 Sudoeste 33 Oeste 0 -- -- 75
2019-04-06 10:00:00 6.4 22 Oeste 30 Sudoeste 0 -- -- 87
2019-04-06 09:00:00 6 12 Oeste 24 Sudoeste 0 -- -- 92
2019-04-06 08:00:00 5.5 10 Sudoeste 33 Oeste 0 -- -- 93
2019-04-06 07:00:00 5.5 22 Sudoeste 36 Sudoeste 0.2 -- -- 91
2019-04-06 06:00:00 5.5 21 Sudoeste 32 Sudoeste 0 -- -- 91
2019-04-06 05:00:00 5.3 19 Sudoeste 32 Sudoeste 0 -- -- 91
2019-04-06 04:00:00 5 13 Sudoeste 23 Sudoeste 0 -- -- 93
2019-04-06 03:00:00 4.1 14 Sudoeste 22 Sudoeste 0 -- -- 94
2019-04-06 02:00:00 3.5 14 Sudoeste 26 Sudoeste 0 -- -- 93
2019-04-06 01:00:00 4.6 16 Oeste 28 Oeste 0 -- -- 90
2019-04-06 00:00:00 5.1 19 Oeste 32 Oeste 0 -- -- 91
2019-04-05 23:00:00 4.6 19 Oeste 27 Sudoeste 0 -- -- 93
2019-04-05 22:00:00 4.8 19 Oeste 41 Oeste 0.2 -- -- 89
2019-04-05 21:00:00 6.7 28 Oeste 44 Oeste 0.2 -- -- 82
2019-04-05 20:00:00 8.2 10 Sudoeste 51 Noroeste 0 -- -- 70
2019-04-05 19:00:00 11.1 26 Oeste 41 Oeste 0 -- -- 50
2019-04-05 18:00:00 11.7 29 Oeste 46 Oeste 0 -- -- 48
2019-04-05 17:00:00 11.7 27 Oeste 41 Oeste 0 -- -- 47
2019-04-05 16:00:00 10.8 27 Oeste 42 Oeste 0 -- -- 51
2019-04-05 15:00:00 9.7 27 Oeste 44 Noroeste 0.2 -- -- 59
2019-04-05 14:00:00 8.7 26 Oeste 47 Oeste 0 -- -- 75
2019-04-05 13:00:00 8.4 29 Oeste 43 Oeste 0 -- -- 80
2019-04-05 12:00:00 5.9 23 Oeste 37 Oeste 1.4 -- -- 91
2019-04-05 11:00:00 7.9 11 Sur 20 Sudoeste 0.2 -- -- 90
2019-04-05 10:00:00 6.4 9 Sur 18 Sudoeste 0.2 -- -- 92
2019-04-05 09:00:00 6.3 14 Sudoeste 28 Oeste 0.8 -- -- 92
2019-04-05 08:00:00 6.6 13 Sur 24 Sur 0.4 -- -- 92
2019-04-05 07:00:00 6.4 15 Sur 25 Sudoeste 1.4 -- -- 92
2019-04-05 06:00:00 6.4 9 Sudoeste 28 Sur 1.2 -- -- 89
2019-04-05 05:00:00 7.3 15 Sudoeste 36 Sudoeste 0 -- -- 73
2019-04-05 04:00:00 7.7 13 Sudoeste 26 Sudoeste 0 -- -- 67
2019-04-05 03:00:00 8.2 14 Sudoeste 28 Oeste 0 -- -- 65
2019-04-05 02:00:00 8.7 15 Sudoeste 37 Oeste 0 -- -- 62
2019-04-05 01:00:00 8.9 20 Oeste 31 Oeste 0 -- -- 58
2019-04-05 00:00:00 9.5 16 Sudoeste 24 Sudoeste 0 -- -- 43
2019-04-04 23:00:00 10.5 14 Oeste 27 Sudoeste 0 -- -- 38
2019-04-04 22:00:00 10.7 14 Oeste 23 Oeste 0 -- -- 38
2019-04-04 21:00:00 11.4 12 Oeste 28 Oeste 0 -- -- 36
2019-04-04 20:00:00 14.3 17 Oeste 31 Oeste 0 -- -- 29
2019-04-04 19:00:00 15.6 25 Oeste 36 Oeste 0 -- -- 26
2019-04-04 18:00:00 16.9 17 Oeste 36 Oeste 0 -- -- 29
2019-04-04 17:00:00 17.4 9 Sudoeste 26 Oeste 0 -- -- 27
2019-04-04 16:00:00 16.9 10 Oeste 26 Oeste 0 -- -- 28
2019-04-04 15:00:00 15.7 6 Nordeste 19 Sur 0 -- -- 30
2019-04-04 14:00:00 15.1 8 Sur 17 Sudeste 0 -- -- 32
2019-04-04 13:00:00 14.3 5 Este 16 Este 0 -- -- 34
2019-04-04 12:00:00 12 4 Nordeste 19 Nordeste 0 -- -- 39
2019-04-04 11:00:00 9.9 8 Nordeste 19 Nordeste 0 -- -- 44
2019-04-04 10:00:00 7 10 Noroeste 17 Noroeste 0 -- -- 55
2019-04-04 09:00:00 2.7 10 Noroeste 15 Noroeste 0 -- -- 70
2019-04-04 08:00:00 1.4 8 Noroeste 19 Noroeste 0 -- -- 70
2019-04-04 07:00:00 2.1 13 Noroeste 18 Noroeste 0 -- -- 69
2019-04-04 06:00:00 3.7 10 Noroeste 22 Noroeste 0 -- -- 63
2019-04-04 05:00:00 4.1 2 Noroeste 16 Noroeste 0 -- -- 60
2019-04-04 04:00:00 4.5 4 Sudoeste 14 Oeste 0 -- -- 57
2019-04-04 03:00:00 4.9 6 Oeste 17 Noroeste 0 -- -- 55
2019-04-04 02:00:00 4.4 7 Noroeste 15 Noroeste 0 -- -- 60
2019-04-04 01:00:00 5.8 10 Noroeste 18 Noroeste 0 -- -- 56
2019-04-04 00:00:00 6.5 9 Noroeste 16 Noroeste 0 -- -- 54
2019-04-03 23:00:00 7.8 8 Oeste 19 Noroeste 0 -- -- 52
2019-04-03 22:00:00 9.4 10 Noroeste 18 Noroeste 0 -- -- 47
2019-04-03 21:00:00 12.2 10 Oeste 27 Noroeste 0 -- -- 46
2019-04-03 20:00:00 15 20 Noroeste 33 Noroeste 0 -- -- 45
2019-04-03 19:00:00 16.3 25 Noroeste 43 Noroeste 0 -- -- 42
2019-04-03 18:00:00 17 28 Noroeste 42 Oeste 0 -- -- 43
2019-04-03 17:00:00 18.1 28 Noroeste 42 Oeste 0 -- -- 43
2019-04-03 16:00:00 18.6 30 Oeste 44 Oeste 0 -- -- 32
2019-04-03 15:00:00 18.4 25 Oeste 40 Oeste 0 -- -- 35
2019-04-03 14:00:00 17.8 21 Oeste 53 Oeste 0 -- -- 37
2019-04-03 13:00:00 17 17 Oeste 32 Oeste 0 -- -- 40
2019-04-03 12:00:00 16.2 17 Oeste 25 Oeste 0 -- -- 42
2019-04-03 11:00:00 14.1 13 Oeste 21 Sudoeste 0 -- -- 44
2019-04-03 10:00:00 10.4 8 Sudoeste 12 Sudoeste 0 -- -- 75
2019-04-03 09:00:00 6.5 3 Sur 7 Sur 0 -- -- 94
2019-04-03 08:00:00 6.3 3 Sur 9 Sur 0 -- -- 91
2019-04-03 07:00:00 7.2 6 Sur 13 Sur 0 -- -- 89
2019-04-03 06:00:00 7.5 4 Sur 8 Sur 0 -- -- 87
2019-04-03 05:00:00 8 4 Sur 10 Sudoeste 0 -- -- 83
2019-04-03 04:00:00 7.8 5 Sur 9 Sur 0 -- -- 82
2019-04-03 03:00:00 7 0 Calma 4 Sur 0 -- -- 80
2019-04-03 02:00:00 7.2 4 Sur 5 Sur 0 -- -- 78
2019-04-03 01:00:00 7.8 2 Sur 4 Sur 0 -- -- 73
2019-04-03 00:00:00 8.5 0 Calma 4 Sur 0 -- -- 69
2019-04-02 23:00:00 10.2 0 Calma 3 Sudoeste 0 -- -- 66
2019-04-02 22:00:00 11.8 2 Noroeste 8 Oeste 0 -- -- 60
2019-04-02 21:00:00 14.5 8 Oeste 17 Noroeste 0 -- -- 54
2019-04-02 20:00:00 17.6 15 Noroeste 22 Noroeste 0 -- -- 47
2019-04-02 19:00:00 18.6 9 Noroeste 21 Noroeste 0 -- -- 44
2019-04-02 18:00:00 18.8 15 Oeste 24 Oeste 0 -- -- 40
2019-04-02 17:00:00 20.2 11 Oeste 20 Oeste 0 -- -- 39
2019-04-02 16:00:00 18 10 Norte 20 Norte 0 -- -- 49
2019-04-02 15:00:00 18.4 10 Noroeste 17 Norte 0 -- -- 46
2019-04-02 14:00:00 16.7 3 Norte 18 Noroeste 0 -- -- 53
2019-04-02 13:00:00 15.4 6 Noroeste 12 Noroeste 0 -- -- 63
2019-04-02 12:00:00 14.7 4 Este 9 Sur 0 -- -- 66
2019-04-02 11:00:00 13.6 5 Sur 10 Sur 0 -- -- 73
2019-04-02 10:00:00 10.4 3 Sudoeste 8 Sudoeste 0 -- -- 92
2019-04-02 09:00:00 9.1 3 Sur 6 Sudoeste 0 -- -- 98
2019-04-02 08:00:00 8.9 4 Oeste 6 Oeste 0 -- -- 97
2019-04-02 07:00:00 8.9 4 Oeste 7 Sudoeste 0 -- -- 97
2019-04-02 06:00:00 8.8 3 Sudoeste 11 Sur 0 -- -- 97
2019-04-02 05:00:00 8 3 Sur 5 Sudeste 0 -- -- 91
2019-04-02 04:00:00 9.8 4 Sudoeste 9 Noroeste 0 -- -- 92
2019-04-02 03:00:00 10.1 4 Sur 8 Sudoeste 0 -- -- 91
2019-04-02 02:00:00 10.3 4 Norte 17 Sur 0 -- -- 88
2019-04-02 01:00:00 10.8 8 Sur 13 Sur 0 -- -- 86
2019-04-02 00:00:00 10.8 7 Sur 15 Sur 0 -- -- 83
2019-04-01 23:00:00 10.7 6 Sudoeste 8 Sudoeste 0 -- -- 79
2019-04-01 22:00:00 10.6 7 Noroeste 17 Oeste 0 -- -- 79
2019-04-01 21:00:00 13.1 13 Oeste 20 Sur 0 -- -- 71
2019-04-01 20:00:00 14.6 13 Sur 27 Sur 0 -- -- 59
2019-04-01 19:00:00 16.4 15 Sur 28 Sur 0 -- -- 54
2019-04-01 18:00:00 17.7 16 Sur 27 Sur 0 -- -- 44
2019-04-01 17:00:00 16.3 17 Sur 33 Sur 0 -- -- 56
2019-04-01 16:00:00 16.5 15 Sur 29 Sur 0 -- -- 53
2019-04-01 15:00:00 15.9 18 Sudoeste 31 Oeste 0 -- -- 57
2019-04-01 14:00:00 17.7 15 Sudeste 29 Sur 0 -- -- 50
2019-04-01 13:00:00 15.8 14 Sur 23 Sudoeste 0 -- -- 58
2019-04-01 12:00:00 15.1 11 Sur 23 Sur 0 -- -- 63
2019-04-01 11:00:00 13.4 9 Sur 18 Sur 0 -- -- 74
2019-04-01 10:00:00 11.7 8 Sur 14 Sur 0 -- -- 84
2019-04-01 09:00:00 11.2 4 Sur 14 Sudeste 0 -- -- 89
2019-04-01 08:00:00 10.8 3 Sudeste 10 Sur 0 -- -- 91
2019-04-01 07:00:00 10.5 3 Nordeste 6 Sudoeste 0 -- -- 91
2019-04-01 06:00:00 10.7 0 Calma 13 Sur 0 -- -- 88
2019-04-01 05:00:00 10.8 3 Sudeste 6 Sudeste 0 -- -- 89
2019-04-01 04:00:00 10.8 4 Sur 9 Sur 0 -- -- 89
2019-04-01 03:00:00 10.8 2 Este 7 Sur 0 -- -- 91
2019-04-01 02:00:00 10.9 3 Sur 9 Sur 0 -- -- 89
2019-04-01 01:00:00 11.4 5 Sur 10 Sudeste 0 -- -- 88
2019-04-01 00:00:00 11.5 0 Calma 5 Nordeste 0.2 -- -- 85
2019-03-31 23:00:00 12.2 3 Sudoeste 5 Sudoeste 0 -- -- 76
2019-03-31 22:00:00 12.3 0 Calma 6 Norte 0 -- -- 75
2019-03-31 21:00:00 12.3 4 Noroeste 19 Sur 0 -- -- 73
2019-03-31 20:00:00 13.1 12 Sur 26 Sudoeste 0 -- -- 72
2019-03-31 19:00:00 14.2 25 Sudoeste 36 Sudoeste 0 -- -- 64
2019-03-31 18:00:00 16.7 7 Nordeste 22 Norte 0 -- -- 52
2019-03-31 17:00:00 18.6 9 Nordeste 29 Noroeste 0 -- -- 49
2019-03-31 16:00:00 19.4 12 Norte 25 Nordeste 0 -- -- 47
2019-03-31 15:00:00 17.5 6 Noroeste 15 Noroeste 0 -- -- 57
2019-03-31 14:00:00 17.8 5 Noroeste 19 Noroeste 0 -- -- 55
2019-03-31 13:00:00 16.1 5 Sur 14 Sudeste 0 -- -- 64
2019-03-31 12:00:00 15.1 8 Sudeste 14 Sur 0 -- -- 70
2019-03-31 11:00:00 12.6 4 Sudoeste 9 Sudoeste 0 -- -- 80
2019-03-31 10:00:00 11.2 2 Norte 5 Noroeste 0 -- -- 87
2019-03-31 09:00:00 10.1 0 Calma 9 Sur 0 -- -- 92
2019-03-31 08:00:00 10.2 6 Sur 11 Sudoeste 0.2 -- -- 91
2019-03-31 07:00:00 10.3 3 Sudeste 5 Este 0.2 -- -- 91
2019-03-31 06:00:00 10.2 2 Este 10 Este 0.2 -- -- 89
2019-03-31 05:00:00 10.2 0 Calma 5 Sudeste 0 -- -- 86
2019-03-31 03:00:00 10.8 7 Sur 13 Sur 0 -- -- 84
2019-03-31 01:00:00 12 5 Sudeste 9 Sudeste 0 -- -- 76
2019-03-31 00:00:00 12.5 3 Sur 11 Sur 0 -- -- 75
2019-03-30 23:00:00 12.7 9 Sur 17 Sur 0.2 -- -- 71
2019-03-30 22:00:00 14 4 Sudoeste 11 Nordeste 0 -- -- 60
2019-03-30 21:00:00 14.2 7 Nordeste 13 Nordeste 0 -- -- 59
2019-03-30 20:00:00 15.2 6 Nordeste 17 Nordeste 0 -- -- 57
2019-03-30 19:00:00 18.1 8 Este 18 Nordeste 0 -- -- 49
2019-03-30 18:00:00 20.4 9 Nordeste 18 Sudeste 0 -- -- 39
2019-03-30 17:00:00 21.1 5 Sur 17 Sur 0 -- -- 38
2019-03-30 16:00:00 22.3 8 Este 26 Este 0 -- -- 32
2019-03-30 15:00:00 20.7 5 Este 29 Sudeste 0 -- -- 35
2019-03-30 14:00:00 20.4 9 Este 28 Este 0 -- -- 38
2019-03-30 13:00:00 19.1 10 Este 27 Sudeste 0 -- -- 39
2019-03-30 12:00:00 17.8 11 Este 26 Este 0 -- -- 42
2019-03-30 11:00:00 16.5 9 Nordeste 22 Este 0 -- -- 49
2019-03-30 10:00:00 14.1 10 Nordeste 23 Nordeste 0 -- -- 58
2019-03-30 09:00:00 9.8 3 Este 9 Sudeste 0 -- -- 80
2019-03-30 08:00:00 5.9 3 Nordeste 6 Este 0 -- -- 94
2019-03-30 07:00:00 4.5 0 Calma 4 Este 0 -- -- 85
2019-03-30 06:00:00 6.6 2 Nordeste 9 Nordeste 0 -- -- 85
2019-03-30 05:00:00 8.6 5 Sudeste 13 Sudeste 0 -- -- 81
2019-03-30 04:00:00 9.2 8 Sur 19 Sur 0 -- -- 80
2019-03-30 03:00:00 9.6 11 Sudeste 17 Sur 0 -- -- 74
2019-03-30 02:00:00 10.2 5 Sur 18 Sur 0 -- -- 66
2019-03-30 01:00:00 9.5 3 Noroeste 12 Sur 0 -- -- 65
2019-03-30 00:00:00 11.1 3 Sudeste 8 Sudeste 0 -- -- 59
2019-03-29 23:00:00 10.9 2 Noroeste 8 Sudeste 0 -- -- 53
2019-03-29 22:00:00 12.7 2 Sudeste 16 Sur 0 -- -- 50
2019-03-29 21:00:00 13.6 10 Sur 18 Sur 0 -- -- 47
2019-03-29 20:00:00 15.6 6 Sur 12 Sur 0 -- -- 31
2019-03-29 19:00:00 17.8 9 Sur 18 Sudoeste 0 -- -- 27
2019-03-29 18:00:00 19.3 8 Sur 21 Sudeste 0 -- -- 25
2019-03-29 17:00:00 19.5 8 Sudoeste 26 Sur 0 -- -- 24
2019-03-29 16:00:00 19.7 7 Este 22 Sur 0 -- -- 23
2019-03-29 15:00:00 19 8 Este 28 Sudeste 0 -- -- 23
2019-03-29 14:00:00 18.3 6 Sur 36 Sudeste 0 -- -- 24
2019-03-29 13:00:00 17.5 13 Sudeste 29 Sudeste 0 -- -- 24
2019-03-29 12:00:00 16.5 19 Sudeste 32 Sudeste 0 -- -- 24
2019-03-29 11:00:00 15.2 11 Este 21 Este 0 -- -- 26
2019-03-29 10:00:00 12 5 Nordeste 11 Nordeste 0 -- -- 39
2019-03-29 09:00:00 6.7 3 Este 7 Este 0 -- -- 58
2019-03-29 08:00:00 -0.6 0 Calma 2 Oeste 0 -- -- 80
2019-03-29 07:00:00 -0.3 0 Calma 6 Nordeste 0 -- -- 77
2019-03-29 06:00:00 0.4 0 Calma 4 Este 0 -- -- 73
2019-03-29 05:00:00 1.3 3 Sudeste 4 Este 0 -- -- 71
2019-03-29 04:00:00 3.2 0 Calma 3 Norte 0 -- -- 61
2019-03-29 03:00:00 4.8 0 Calma 10 Sur 0 -- -- 61
2019-03-29 02:00:00 5.9 0 Calma 13 Sur 0 -- -- 57
2019-03-29 01:00:00 6.9 2 Este 6 Sudeste 0 -- -- 56
2019-03-29 00:00:00 6 4 Sur 7 Sur 0 -- -- 50
2019-03-28 23:00:00 7.1 3 Sudeste 9 Sudoeste 0 -- -- 42
2019-03-28 22:00:00 8.4 4 Sudoeste 8 Sur 0 -- -- 36
2019-03-28 21:00:00 10.4 0 Calma 6 Sur 0 -- -- 33
2019-03-28 20:00:00 15 4 Sur 14 Sur 0 -- -- 24
2019-03-28 19:00:00 17.9 9 Sur 21 Sudeste 0 -- -- 19
2019-03-28 18:00:00 19.2 17 Este 28 Sudeste 0 -- -- 17
2019-03-28 17:00:00 20 11 Este 35 Este 0 -- -- 17
2019-03-28 16:00:00 19.2 12 Este 33 Este 0 -- -- 15
2019-03-28 15:00:00 18.7 17 Este 35 Este 0 -- -- 17
2019-03-28 14:00:00 18.2 17 Sudeste 34 Sur 0 -- -- 16
2019-03-28 13:00:00 17.3 10 Este 31 Sudeste 0 -- -- 21
2019-03-28 12:00:00 16 14 Sudeste 31 Sudeste 0 -- -- 24
2019-03-28 11:00:00 14.9 15 Este 28 Este 0 -- -- 32
2019-03-28 10:00:00 13.3 9 Este 17 Este 0 -- -- 39
2019-03-28 09:00:00 9.1 9 Nordeste 19 Nordeste 0 -- -- 59
2019-03-28 08:00:00 2.9 2 Este 6 Este 0 -- -- 94
2019-03-28 07:00:00 1.9 0 Calma 8 Nordeste 0 -- -- 91
2019-03-28 06:00:00 1.4 0 Calma 3 Nordeste 0 -- -- 77
2019-03-28 05:00:00 1.7 0 Calma 3 Oeste 0 -- -- 79
2019-03-28 04:00:00 3.3 0 Calma 2 Sudeste 0 -- -- 78
2019-03-28 03:00:00 4.9 0 Calma 7 Este 0 -- -- 75
2019-03-28 02:00:00 6.5 0 Calma 15 Sur 0 -- -- 71
2019-03-28 01:00:00 8 10 Sur 18 Sur 0 -- -- 62
2019-03-28 00:00:00 8 6 Sudeste 12 Sudoeste 0 -- -- 48
2019-03-27 23:00:00 7.4 8 Sudoeste 14 Sudoeste 0 -- -- 38
2019-03-27 22:00:00 9.8 3 Nordeste 9 Sudeste 0 -- -- 32
2019-03-27 21:00:00 12 6 Nordeste 14 Nordeste 0 -- -- 28
2019-03-27 20:00:00 14.3 8 Nordeste 20 Nordeste 0 -- -- 23
2019-03-27 19:00:00 17.9 13 Nordeste 29 Nordeste 0 -- -- 18
2019-03-27 18:00:00 19.9 14 Nordeste 35 Nordeste 0 -- -- 16
2019-03-27 17:00:00 20.6 13 Nordeste 37 Nordeste 0 -- -- 18
2019-03-27 16:00:00 20.2 19 Nordeste 45 Nordeste 0 -- -- 18
2019-03-27 15:00:00 19.9 21 Nordeste 39 Nordeste 0 -- -- 20
2019-03-27 14:00:00 19 21 Nordeste 37 Nordeste 0 -- -- 22
2019-03-27 13:00:00 16.8 16 Nordeste 31 Nordeste 0 -- -- 29
2019-03-27 12:00:00 15.6 15 Nordeste 31 Nordeste 0 -- -- 33
2019-03-27 11:00:00 14.1 12 Este 25 Sudeste 0 -- -- 35
2019-03-27 10:00:00 11.5 10 Nordeste 27 Este 0 -- -- 44
2019-03-27 09:00:00 7.2 10 Nordeste 19 Nordeste 0 -- -- 68
2019-03-27 08:00:00 2.4 4 Nordeste 12 Norte 0 -- -- 82
2019-03-27 07:00:00 2.9 0 Calma 8 Nordeste 0 -- -- 78
2019-03-27 06:00:00 3.6 0 Calma 7 Nordeste 0 -- -- 78
2019-03-27 05:00:00 5.3 5 Sudoeste 12 Nordeste 0 -- -- 73
2019-03-27 04:00:00 7.1 8 Nordeste 14 Nordeste 0 -- -- 70
2019-03-27 03:00:00 8.9 7 Nordeste 21 Este 0 -- -- 65
2019-03-27 02:00:00 11.2 13 Este 21 Este 0 -- -- 58
2019-03-27 01:00:00 10.6 0 Calma 14 Este 0 -- -- 54
2019-03-27 00:00:00 12.1 5 Este 15 Sudeste 0 -- -- 47
2019-03-26 23:00:00 13.7 6 Este 24 Este 0 -- -- 41
2019-03-26 22:00:00 15.2 11 Este 17 Este 0 -- -- 39
2019-03-26 21:00:00 17 10 Nordeste 26 Nordeste 0 -- -- 34
2019-03-26 20:00:00 18.3 9 Nordeste 19 Nordeste 0 -- -- 29
2019-03-26 19:00:00 21.7 10 Sudeste 24 Sudeste 0 -- -- 23
2019-03-26 18:00:00 24 7 Este 29 Este 0 -- -- 21
2019-03-26 17:00:00 23.7 13 Este 27 Este 0 -- -- 20
2019-03-26 16:00:00 23.4 13 Nordeste 33 Nordeste 0 -- -- 22
2019-03-26 15:00:00 23.5 15 Nordeste 35 Nordeste 0 -- -- 24
2019-03-26 14:00:00 22.8 15 Nordeste 31 Nordeste 0 -- -- 25
2019-03-26 13:00:00 20.1 11 Nordeste 29 Nordeste 0 -- -- 30
2019-03-26 12:00:00 18.9 12 Nordeste 27 Nordeste 0 -- -- 31
2019-03-26 11:00:00 17 12 Nordeste 23 Nordeste 0 -- -- 36
2019-03-26 10:00:00 12.7 12 Nordeste 26 Nordeste 0 -- -- 42
2019-03-26 09:00:00 10.3 6 Este 16 Nordeste 0 -- -- 45
2019-03-26 08:00:00 7 6 Sudeste 11 Este 0 -- -- 55
2019-03-26 07:00:00 5.9 3 Nordeste 10 Este 0 -- -- 58
2019-03-26 06:00:00 7.8 9 Nordeste 15 Nordeste 0 -- -- 57
2019-03-26 05:00:00 6.7 3 Nordeste 9 Nordeste 0 -- -- 59
2019-03-26 04:00:00 7.4 3 Nordeste 9 Este 0 -- -- 52
2019-03-26 03:00:00 5.4 3 Nordeste 12 Nordeste 0 -- -- 59
2019-03-26 02:00:00 6.7 3 Nordeste 7 Nordeste 0 -- -- 51
2019-03-26 01:00:00 9.3 0 Calma 9 Nordeste 0 -- -- 40
2019-03-26 00:00:00 9.9 5 Este 10 Este 0 -- -- 38
2019-03-25 23:00:00 9 3 Este 5 Este 0 -- -- 43
2019-03-25 22:00:00 11.5 0 Calma 4 Este 0 -- -- 39
2019-03-25 21:00:00 14 4 Este 13 Nordeste 0 -- -- 31
2019-03-25 20:00:00 16.6 6 Nordeste 22 Nordeste 0 -- -- 28
2019-03-25 19:00:00 20.1 12 Nordeste 31 Nordeste 0 -- -- 24
2019-03-25 18:00:00 21.7 15 Nordeste 31 Nordeste 0 -- -- 23
2019-03-25 17:00:00 22.7 13 Este 37 Este 0 -- -- 22
2019-03-25 16:00:00 22.6 13 Este 37 Este 0 -- -- 23
2019-03-25 15:00:00 22.3 13 Este 34 Nordeste 0 -- -- 24
2019-03-25 14:00:00 21.5 15 Este 36 Este 0 -- -- 27
2019-03-25 13:00:00 20.5 17 Este 31 Nordeste 0 -- -- 31
2019-03-25 12:00:00 18.3 13 Este 30 Nordeste 0 -- -- 38
2019-03-25 11:00:00 16.7 10 Nordeste 24 Nordeste 0 -- -- 40
2019-03-25 10:00:00 12.9 9 Nordeste 22 Nordeste 0 -- -- 56
2019-03-25 09:00:00 9.2 7 Nordeste 14 Nordeste 0 -- -- 71
2019-03-25 08:00:00 2.8 2 Noroeste 7 Noroeste 0 -- -- 91
2019-03-25 07:00:00 2.4 0 Calma 8 Nordeste 0 -- -- 84
2019-03-25 06:00:00 3.7 0 Calma 4 Noroeste 0 -- -- 83
2019-03-25 05:00:00 3.8 0 Calma 5 Sudoeste 0 -- -- 85
2019-03-25 04:00:00 4.9 0 Calma 6 Oeste 0 -- -- 80
2019-03-25 03:00:00 4.5 3 Oeste 4 Oeste 0 -- -- 75
2019-03-25 02:00:00 5.5 3 Oeste 4 Oeste 0 -- -- 74
2019-03-25 01:00:00 6.9 0 Calma 3 Nordeste 0 -- -- 71
2019-03-25 00:00:00 7.8 0 Calma 4 Sudoeste 0 -- -- 68